sensor_id;sensor_type;location;lat;lon;timestamp;pressure;altitude;pressure_sealevel;temperature;humidity
61357;BME280;47227;46.752;23.576;2023-11-19T00:00:29;96520.09;;;1.02;90.50
61357;BME280;47227;46.752;23.576;2023-11-19T00:03:17;96517.15;;;0.99;90.37
61357;BME280;47227;46.752;23.576;2023-11-19T00:05:46;96523.21;;;0.94;90.33
61357;BME280;47227;46.752;23.576;2023-11-19T00:08:14;96523.29;;;0.89;90.48
61357;BME280;47227;46.752;23.576;2023-11-19T00:10:43;96526.07;;;0.87;90.22
61357;BME280;47227;46.752;23.576;2023-11-19T00:13:12;96523.51;;;0.84;89.97
61357;BME280;47227;46.752;23.576;2023-11-19T00:15:40;96519.76;;;0.81;90.14
61357;BME280;47227;46.752;23.576;2023-11-19T00:18:09;96514.23;;;0.78;90.26
61357;BME280;47227;46.752;23.576;2023-11-19T00:20:37;96519.34;;;0.76;90.22
61357;BME280;47227;46.752;23.576;2023-11-19T00:23:06;96510.59;;;0.73;90.10
61357;BME280;47227;46.752;23.576;2023-11-19T00:25:34;96505.20;;;0.70;90.10
61357;BME280;47227;46.752;23.576;2023-11-19T00:28:03;96505.02;;;0.67;90.05
61357;BME280;47227;46.752;23.576;2023-11-19T00:30:32;96512.90;;;0.66;90.06
61357;BME280;47227;46.752;23.576;2023-11-19T00:33:00;96516.20;;;0.64;89.61
61357;BME280;47227;46.752;23.576;2023-11-19T00:35:28;96517.36;;;0.61;89.61
61357;BME280;47227;46.752;23.576;2023-11-19T00:37:57;96515.58;;;0.59;89.52
61357;BME280;47227;46.752;23.576;2023-11-19T00:40:26;96513.83;;;0.58;89.54
61357;BME280;47227;46.752;23.576;2023-11-19T00:42:55;96522.45;;;0.56;89.73
61357;BME280;47227;46.752;23.576;2023-11-19T00:45:26;96530.83;;;0.57;89.40
61357;BME280;47227;46.752;23.576;2023-11-19T00:47:55;96538.33;;;0.56;89.34
61357;BME280;47227;46.752;23.576;2023-11-19T00:50:23;96547.50;;;0.55;89.38
61357;BME280;47227;46.752;23.576;2023-11-19T00:52:52;96548.85;;;0.56;89.35
61357;BME280;47227;46.752;23.576;2023-11-19T00:55:20;96545.61;;;0.57;89.61
61357;BME280;47227;46.752;23.576;2023-11-19T00:57:49;96546.66;;;0.58;89.84
61357;BME280;47227;46.752;23.576;2023-11-19T01:00:18;96548.92;;;0.61;90.00
61357;BME280;47227;46.752;23.576;2023-11-19T01:02:48;96555.16;;;0.64;89.50
61357;BME280;47227;46.752;23.576;2023-11-19T01:05:20;96554.63;;;0.65;89.12
61357;BME280;47227;46.752;23.576;2023-11-19T01:07:52;96551.73;;;0.68;88.48
61357;BME280;47227;46.752;23.576;2023-11-19T01:10:23;96548.78;;;0.71;88.77
61357;BME280;47227;46.752;23.576;2023-11-19T01:12:53;96539.25;;;0.73;88.73
61357;BME280;47227;46.752;23.576;2023-11-19T01:15:22;96534.31;;;0.76;88.49
61357;BME280;47227;46.752;23.576;2023-11-19T01:17:51;96532.46;;;0.80;88.18
61357;BME280;47227;46.752;23.576;2023-11-19T01:20:21;96526.55;;;0.80;87.79
61357;BME280;47227;46.752;23.576;2023-11-19T01:22:50;96531.17;;;0.82;87.42
61357;BME280;47227;46.752;23.576;2023-11-19T01:25:19;96529.64;;;0.83;86.62
61357;BME280;47227;46.752;23.576;2023-11-19T01:27:48;96530.61;;;0.84;85.95
61357;BME280;47227;46.752;23.576;2023-11-19T01:30:18;96534.09;;;0.83;86.04
61357;BME280;47227;46.752;23.576;2023-11-19T01:32:49;96539.03;;;0.84;86.26
61357;BME280;47227;46.752;23.576;2023-11-19T01:35:18;96539.44;;;0.85;86.33
61357;BME280;47227;46.752;23.576;2023-11-19T01:37:46;96537.52;;;0.85;86.36
61357;BME280;47227;46.752;23.576;2023-11-19T01:40:15;96539.66;;;0.84;86.46
61357;BME280;47227;46.752;23.576;2023-11-19T01:42:44;96543.86;;;0.84;86.47
61357;BME280;47227;46.752;23.576;2023-11-19T01:45:22;96540.30;;;0.82;86.58
61357;BME280;47227;46.752;23.576;2023-11-19T01:47:55;96540.23;;;0.78;86.47
61357;BME280;47227;46.752;23.576;2023-11-19T01:50:24;96538.38;;;0.73;86.31
61357;BME280;47227;46.752;23.576;2023-11-19T01:52:54;96534.97;;;0.69;86.40
61357;BME280;47227;46.752;23.576;2023-11-19T01:55:27;96538.83;;;0.63;86.42
61357;BME280;47227;46.752;23.576;2023-11-19T01:58:00;96541.40;;;0.58;86.36
61357;BME280;47227;46.752;23.576;2023-11-19T02:00:30;96545.95;;;0.53;86.63
61357;BME280;47227;46.752;23.576;2023-11-19T02:02:59;96549.39;;;0.50;86.70
61357;BME280;47227;46.752;23.576;2023-11-19T02:05:29;96550.63;;;0.45;86.75
61357;BME280;47227;46.752;23.576;2023-11-19T02:07:57;96550.63;;;0.41;87.11
61357;BME280;47227;46.752;23.576;2023-11-19T02:10:25;96545.79;;;0.40;87.38
61357;BME280;47227;46.752;23.576;2023-11-19T02:12:54;96540.72;;;0.36;87.51
61357;BME280;47227;46.752;23.576;2023-11-19T02:15:33;96534.04;;;0.33;87.65
61357;BME280;47227;46.752;23.576;2023-11-19T02:18:19;96524.84;;;0.31;87.59
61357;BME280;47227;46.752;23.576;2023-11-19T02:20:51;96522.77;;;0.30;87.97
61357;BME280;47227;46.752;23.576;2023-11-19T02:23:20;96521.68;;;0.27;87.97
61357;BME280;47227;46.752;23.576;2023-11-19T02:28:39;96519.46;;;0.24;88.09
61357;BME280;47227;46.752;23.576;2023-11-19T02:31:08;96518.52;;;0.22;88.21
61357;BME280;47227;46.752;23.576;2023-11-19T02:33:39;96520.02;;;0.19;88.02
61357;BME280;47227;46.752;23.576;2023-11-19T02:36:08;96514.23;;;0.16;88.10
61357;BME280;47227;46.752;23.576;2023-11-19T02:38:37;96508.66;;;0.15;88.10
61357;BME280;47227;46.752;23.576;2023-11-19T02:41:06;96507.09;;;0.12;88.05
61357;BME280;47227;46.752;23.576;2023-11-19T02:43:36;96502.34;;;0.10;88.05
61357;BME280;47227;46.752;23.576;2023-11-19T02:46:06;96503.08;;;0.09;87.85
61357;BME280;47227;46.752;23.576;2023-11-19T02:48:38;96507.80;;;0.09;87.99
61357;BME280;47227;46.752;23.576;2023-11-19T02:51:07;96511.17;;;0.09;87.99
61357;BME280;47227;46.752;23.576;2023-11-19T02:53:38;96507.96;;;0.09;88.03
61357;BME280;47227;46.752;23.576;2023-11-19T02:56:08;96504.91;;;0.10;88.13
61357;BME280;47227;46.752;23.576;2023-11-19T02:58:44;96509.85;;;0.12;88.15
61357;BME280;47227;46.752;23.576;2023-11-19T03:01:21;96507.52;;;0.11;88.22
61357;BME280;47227;46.752;23.576;2023-11-19T03:04:00;96503.41;;;0.12;88.30
61357;BME280;47227;46.752;23.576;2023-11-19T03:06:31;96505.15;;;0.15;88.38
61357;BME280;47227;46.752;23.576;2023-11-19T03:09:00;96503.78;;;0.17;88.18
61357;BME280;47227;46.752;23.576;2023-11-19T03:11:34;96497.30;;;0.18;88.35
61357;BME280;47227;46.752;23.576;2023-11-19T03:14:03;96503.83;;;0.19;88.27
61357;BME280;47227;46.752;23.576;2023-11-19T03:16:31;96498.67;;;0.19;87.57
61357;BME280;47227;46.752;23.576;2023-11-19T03:19:01;96490.05;;;0.16;87.32
61357;BME280;47227;46.752;23.576;2023-11-19T03:21:30;96489.67;;;0.15;87.39
61357;BME280;47227;46.752;23.576;2023-11-19T03:23:59;96496.23;;;0.15;87.00
61357;BME280;47227;46.752;23.576;2023-11-19T03:26:31;96490.23;;;0.12;86.73
61357;BME280;47227;46.752;23.576;2023-11-19T03:28:59;96493.36;;;0.09;86.66
61357;BME280;47227;46.752;23.576;2023-11-19T03:31:27;96493.66;;;0.06;86.76
61357;BME280;47227;46.752;23.576;2023-11-19T03:33:57;96494.29;;;0.02;86.71
61357;BME280;47227;46.752;23.576;2023-11-19T03:36:32;96498.58;;;-0.03;86.87
61357;BME280;47227;46.752;23.576;2023-11-19T03:39:02;96503.59;;;-0.05;87.00
61357;BME280;47227;46.752;23.576;2023-11-19T03:41:31;96504.46;;;-0.07;87.01
61357;BME280;47227;46.752;23.576;2023-11-19T03:44:02;96498.70;;;-0.14;87.26
61357;BME280;47227;46.752;23.576;2023-11-19T03:46:31;96499.02;;;-0.23;87.14
61357;BME280;47227;46.752;23.576;2023-11-19T03:49:00;96499.73;;;-0.28;87.36
61357;BME280;47227;46.752;23.576;2023-11-19T03:51:28;96503.79;;;-0.30;87.49
61357;BME280;47227;46.752;23.576;2023-11-19T03:53:57;96502.66;;;-0.35;87.39
61357;BME280;47227;46.752;23.576;2023-11-19T03:56:25;96498.33;;;-0.40;87.38
61357;BME280;47227;46.752;23.576;2023-11-19T03:58:55;96495.11;;;-0.43;87.39
61357;BME280;47227;46.752;23.576;2023-11-19T04:01:23;96490.12;;;-0.48;87.44
61357;BME280;47227;46.752;23.576;2023-11-19T04:03:52;96490.87;;;-0.50;87.76
61357;BME280;47227;46.752;23.576;2023-11-19T04:06:20;96489.91;;;-0.52;87.93
61357;BME280;47227;46.752;23.576;2023-11-19T04:08:49;96488.94;;;-0.56;88.56
61357;BME280;47227;46.752;23.576;2023-11-19T04:11:18;96489.45;;;-0.59;89.16
61357;BME280;47227;46.752;23.576;2023-11-19T04:13:47;96483.67;;;-0.62;89.33
61357;BME280;47227;46.752;23.576;2023-11-19T04:16:15;96486.66;;;-0.64;89.55
61357;BME280;47227;46.752;23.576;2023-11-19T04:18:44;96488.14;;;-0.67;89.83
61357;BME280;47227;46.752;23.576;2023-11-19T04:21:12;96486.13;;;-0.72;90.01
61357;BME280;47227;46.752;23.576;2023-11-19T04:23:40;96487.27;;;-0.73;90.12
61357;BME280;47227;46.752;23.576;2023-11-19T04:26:09;96488.08;;;-0.76;90.17
61357;BME280;47227;46.752;23.576;2023-11-19T04:28:38;96481.52;;;-0.77;90.26
61357;BME280;47227;46.752;23.576;2023-11-19T04:31:07;96474.08;;;-0.78;90.39
61357;BME280;47227;46.752;23.576;2023-11-19T04:33:37;96465.34;;;-0.79;90.09
61357;BME280;47227;46.752;23.576;2023-11-19T04:36:06;96464.86;;;-0.80;90.14
61357;BME280;47227;46.752;23.576;2023-11-19T04:38:35;96464.21;;;-0.80;90.15
61357;BME280;47227;46.752;23.576;2023-11-19T04:41:04;96461.73;;;-0.80;89.97
61357;BME280;47227;46.752;23.576;2023-11-19T04:43:33;96460.77;;;-0.75;90.31
61357;BME280;47227;46.752;23.576;2023-11-19T04:46:04;96458.29;;;-0.73;90.26
61357;BME280;47227;46.752;23.576;2023-11-19T04:48:32;96451.04;;;-0.71;90.20
61357;BME280;47227;46.752;23.576;2023-11-19T04:51:09;96442.99;;;-0.69;90.08
61357;BME280;47227;46.752;23.576;2023-11-19T04:53:37;96451.46;;;-0.64;90.02
61357;BME280;47227;46.752;23.576;2023-11-19T04:56:10;96450.77;;;-0.61;89.93
61357;BME280;47227;46.752;23.576;2023-11-19T04:58:39;96452.53;;;-0.57;90.05
61357;BME280;47227;46.752;23.576;2023-11-19T05:01:13;96452.09;;;-0.55;90.27
61357;BME280;47227;46.752;23.576;2023-11-19T05:03:44;96448.42;;;-0.54;90.06
61357;BME280;47227;46.752;23.576;2023-11-19T05:06:14;96442.75;;;-0.53;89.93
61357;BME280;47227;46.752;23.576;2023-11-19T05:08:44;96437.36;;;-0.52;89.71
61357;BME280;47227;46.752;23.576;2023-11-19T05:11:12;96426.25;;;-0.53;89.66
61357;BME280;47227;46.752;23.576;2023-11-19T05:13:46;96424.82;;;-0.51;89.58
61357;BME280;47227;46.752;23.576;2023-11-19T05:16:14;96424.55;;;-0.50;89.58
61357;BME280;47227;46.752;23.576;2023-11-19T05:18:43;96426.80;;;-0.48;89.54
61357;BME280;47227;46.752;23.576;2023-11-19T05:21:12;96436.31;;;-0.49;89.51
61357;BME280;47227;46.752;23.576;2023-11-19T05:23:41;96441.73;;;-0.50;89.40
61357;BME280;47227;46.752;23.576;2023-11-19T05:26:17;96444.07;;;-0.49;89.48
61357;BME280;47227;46.752;23.576;2023-11-19T05:28:46;96441.41;;;-0.50;89.30
61357;BME280;47227;46.752;23.576;2023-11-19T05:31:16;96438.67;;;-0.51;89.13
61357;BME280;47227;46.752;23.576;2023-11-19T05:33:45;96441.05;;;-0.50;89.14
61357;BME280;47227;46.752;23.576;2023-11-19T05:36:14;96447.35;;;-0.50;89.07
61357;BME280;47227;46.752;23.576;2023-11-19T05:38:42;96451.96;;;-0.51;89.25
61357;BME280;47227;46.752;23.576;2023-11-19T05:41:12;96458.46;;;-0.51;88.99
61357;BME280;47227;46.752;23.576;2023-11-19T05:43:41;96467.47;;;-0.53;88.80
61357;BME280;47227;46.752;23.576;2023-11-19T05:46:10;96469.70;;;-0.60;88.77
61357;BME280;47227;46.752;23.576;2023-11-19T05:48:41;96464.33;;;-0.69;88.75
61357;BME280;47227;46.752;23.576;2023-11-19T05:51:11;96461.15;;;-0.74;88.86
61357;BME280;47227;46.752;23.576;2023-11-19T05:53:40;96463.05;;;-0.77;88.83
61357;BME280;47227;46.752;23.576;2023-11-19T05:56:09;96469.92;;;-0.82;88.62
61357;BME280;47227;46.752;23.576;2023-11-19T05:58:38;96466.38;;;-0.86;88.81
61357;BME280;47227;46.752;23.576;2023-11-19T06:01:08;96455.60;;;-0.86;88.99
61357;BME280;47227;46.752;23.576;2023-11-19T06:03:37;96443.55;;;-0.89;89.03
61357;BME280;47227;46.752;23.576;2023-11-19T06:06:06;96446.52;;;-0.91;88.95
61357;BME280;47227;46.752;23.576;2023-11-19T06:08:35;96452.66;;;-0.91;89.24
61357;BME280;47227;46.752;23.576;2023-11-19T06:11:04;96453.59;;;-0.90;89.59
61357;BME280;47227;46.752;23.576;2023-11-19T06:13:32;96463.02;;;-0.88;89.87
61357;BME280;47227;46.752;23.576;2023-11-19T06:16:01;96469.50;;;-0.81;90.05
61357;BME280;47227;46.752;23.576;2023-11-19T06:18:31;96472.94;;;-0.74;89.97
61357;BME280;47227;46.752;23.576;2023-11-19T06:20:59;96471.89;;;-0.71;89.82
61357;BME280;47227;46.752;23.576;2023-11-19T06:23:28;96469.64;;;-0.72;89.59
61357;BME280;47227;46.752;23.576;2023-11-19T06:25:56;96471.81;;;-0.75;89.41
61357;BME280;47227;46.752;23.576;2023-11-19T06:28:25;96473.31;;;-0.77;89.45
61357;BME280;47227;46.752;23.576;2023-11-19T06:30:53;96481.51;;;-0.75;89.53
61357;BME280;47227;46.752;23.576;2023-11-19T06:33:22;96479.98;;;-0.74;89.48
61357;BME280;47227;46.752;23.576;2023-11-19T06:35:50;96471.80;;;-0.73;89.41
61357;BME280;47227;46.752;23.576;2023-11-19T06:38:18;96465.29;;;-0.72;89.37
61357;BME280;47227;46.752;23.576;2023-11-19T06:40:47;96460.37;;;-0.67;89.58
61357;BME280;47227;46.752;23.576;2023-11-19T06:43:19;96458.71;;;-0.62;89.56
61357;BME280;47227;46.752;23.576;2023-11-19T06:45:48;96463.30;;;-0.57;89.62
61357;BME280;47227;46.752;23.576;2023-11-19T06:48:16;96462.62;;;-0.51;89.75
61357;BME280;47227;46.752;23.576;2023-11-19T06:50:45;96466.55;;;-0.45;89.77
61357;BME280;47227;46.752;23.576;2023-11-19T06:53:14;96465.80;;;-0.36;89.78
61357;BME280;47227;46.752;23.576;2023-11-19T06:55:42;96458.77;;;-0.29;89.82
61357;BME280;47227;46.752;23.576;2023-11-19T06:58:11;96457.69;;;-0.18;89.94
61357;BME280;47227;46.752;23.576;2023-11-19T07:00:40;96458.90;;;-0.06;89.97
61357;BME280;47227;46.752;23.576;2023-11-19T07:03:09;96451.33;;;0.05;90.10
61357;BME280;47227;46.752;23.576;2023-11-19T07:05:38;96450.23;;;0.14;90.08
61357;BME280;47227;46.752;23.576;2023-11-19T07:08:07;96455.25;;;0.25;89.92
61357;BME280;47227;46.752;23.576;2023-11-19T07:10:35;96457.48;;;0.34;89.74
61357;BME280;47227;46.752;23.576;2023-11-19T07:13:04;96450.01;;;0.39;89.68
61357;BME280;47227;46.752;23.576;2023-11-19T07:15:34;96448.79;;;0.43;89.25
61357;BME280;47227;46.752;23.576;2023-11-19T07:18:03;96448.90;;;0.48;89.08
61357;BME280;47227;46.752;23.576;2023-11-19T07:20:31;96445.03;;;0.53;89.13
61357;BME280;47227;46.752;23.576;2023-11-19T07:23:01;96443.26;;;0.57;88.84
61357;BME280;47227;46.752;23.576;2023-11-19T07:25:29;96440.77;;;0.65;89.07
61357;BME280;47227;46.752;23.576;2023-11-19T07:27:58;96438.30;;;0.74;89.09
61357;BME280;47227;46.752;23.576;2023-11-19T07:30:26;96433.19;;;0.79;88.87
61357;BME280;47227;46.752;23.576;2023-11-19T07:32:55;96430.66;;;0.85;88.74
61357;BME280;47227;46.752;23.576;2023-11-19T07:35:23;96430.64;;;0.90;88.41
61357;BME280;47227;46.752;23.576;2023-11-19T07:37:52;96433.51;;;0.94;88.51
61357;BME280;47227;46.752;23.576;2023-11-19T07:40:20;96437.17;;;0.98;88.39
61357;BME280;47227;46.752;23.576;2023-11-19T07:42:49;96441.09;;;1.01;88.04
61357;BME280;47227;46.752;23.576;2023-11-19T07:45:17;96445.91;;;1.01;87.19
61357;BME280;47227;46.752;23.576;2023-11-19T07:47:46;96447.26;;;1.01;86.82
61357;BME280;47227;46.752;23.576;2023-11-19T07:50:14;96450.84;;;1.01;86.43
61357;BME280;47227;46.752;23.576;2023-11-19T07:52:45;96452.75;;;0.99;86.17
61357;BME280;47227;46.752;23.576;2023-11-19T07:55:13;96449.63;;;0.98;86.00
61357;BME280;47227;46.752;23.576;2023-11-19T07:57:42;96448.35;;;0.97;85.31
61357;BME280;47227;46.752;23.576;2023-11-19T08:00:11;96451.15;;;0.95;85.03
61357;BME280;47227;46.752;23.576;2023-11-19T08:02:42;96450.67;;;0.95;84.94
61357;BME280;47227;46.752;23.576;2023-11-19T08:05:12;96449.55;;;0.97;85.24
61357;BME280;47227;46.752;23.576;2023-11-19T08:07:40;96450.07;;;1.01;85.71
61357;BME280;47227;46.752;23.576;2023-11-19T08:10:09;96453.09;;;1.09;85.51
61357;BME280;47227;46.752;23.576;2023-11-19T08:12:40;96451.67;;;1.14;85.25
61357;BME280;47227;46.752;23.576;2023-11-19T08:15:09;96449.65;;;1.18;84.80
61357;BME280;47227;46.752;23.576;2023-11-19T08:17:37;96447.02;;;1.18;84.01
61357;BME280;47227;46.752;23.576;2023-11-19T08:20:07;96440.81;;;1.21;84.31
61357;BME280;47227;46.752;23.576;2023-11-19T08:22:39;96442.88;;;1.24;83.69
61357;BME280;47227;46.752;23.576;2023-11-19T08:25:08;96447.64;;;1.27;83.96
61357;BME280;47227;46.752;23.576;2023-11-19T08:27:36;96455.02;;;1.33;83.92
61357;BME280;47227;46.752;23.576;2023-11-19T08:30:06;96461.59;;;1.39;83.96
61357;BME280;47227;46.752;23.576;2023-11-19T08:32:35;96468.29;;;1.45;84.06
61357;BME280;47227;46.752;23.576;2023-11-19T08:35:04;96472.28;;;1.49;83.20
61357;BME280;47227;46.752;23.576;2023-11-19T08:37:34;96475.59;;;1.52;82.37
61357;BME280;47227;46.752;23.576;2023-11-19T08:40:05;96468.16;;;1.50;82.29
61357;BME280;47227;46.752;23.576;2023-11-19T08:42:35;96458.95;;;1.55;82.39
61357;BME280;47227;46.752;23.576;2023-11-19T08:45:05;96454.55;;;1.61;82.43
61357;BME280;47227;46.752;23.576;2023-11-19T08:47:33;96452.73;;;1.69;82.18
61357;BME280;47227;46.752;23.576;2023-11-19T08:50:03;96444.08;;;1.75;81.90
61357;BME280;47227;46.752;23.576;2023-11-19T08:52:32;96440.23;;;1.82;81.92
61357;BME280;47227;46.752;23.576;2023-11-19T08:55:02;96437.42;;;1.89;81.86
61357;BME280;47227;46.752;23.576;2023-11-19T08:57:33;96433.13;;;1.96;81.96
61357;BME280;47227;46.752;23.576;2023-11-19T09:00:02;96426.94;;;2.05;81.84
61357;BME280;47227;46.752;23.576;2023-11-19T09:02:35;96428.41;;;2.16;81.89
61357;BME280;47227;46.752;23.576;2023-11-19T09:05:06;96428.70;;;2.26;81.78
61357;BME280;47227;46.752;23.576;2023-11-19T09:07:37;96422.19;;;2.36;81.25
61357;BME280;47227;46.752;23.576;2023-11-19T09:10:06;96430.58;;;2.42;80.55
61357;BME280;47227;46.752;23.576;2023-11-19T09:12:37;96435.77;;;2.48;80.72
61357;BME280;47227;46.752;23.576;2023-11-19T09:15:06;96436.54;;;2.57;80.15
61357;BME280;47227;46.752;23.576;2023-11-19T09:17:35;96435.90;;;2.65;80.37
61357;BME280;47227;46.752;23.576;2023-11-19T09:20:04;96434.34;;;2.75;79.70
61357;BME280;47227;46.752;23.576;2023-11-19T09:22:32;96428.47;;;2.82;79.11
61357;BME280;47227;46.752;23.576;2023-11-19T09:25:01;96438.30;;;2.91;79.45
61357;BME280;47227;46.752;23.576;2023-11-19T09:27:29;96440.63;;;3.06;79.29
61357;BME280;47227;46.752;23.576;2023-11-19T09:29:57;96441.46;;;3.21;79.22
61357;BME280;47227;46.752;23.576;2023-11-19T09:32:27;96436.70;;;3.34;77.31
61357;BME280;47227;46.752;23.576;2023-11-19T09:34:56;96425.98;;;3.37;76.62
61357;BME280;47227;46.752;23.576;2023-11-19T09:37:24;96411.93;;;3.37;77.35
61357;BME280;47227;46.752;23.576;2023-11-19T09:39:52;96405.59;;;3.44;77.78
61357;BME280;47227;46.752;23.576;2023-11-19T09:42:23;96400.86;;;3.56;77.92
61357;BME280;47227;46.752;23.576;2023-11-19T09:44:53;96399.55;;;3.64;77.15
61357;BME280;47227;46.752;23.576;2023-11-19T09:47:23;96407.80;;;3.69;77.34
61357;BME280;47227;46.752;23.576;2023-11-19T09:49:54;96401.81;;;3.75;76.79
61357;BME280;47227;46.752;23.576;2023-11-19T09:52:26;96403.84;;;3.79;76.55
61357;BME280;47227;46.752;23.576;2023-11-19T09:54:54;96401.00;;;3.81;76.33
61357;BME280;47227;46.752;23.576;2023-11-19T09:57:23;96403.45;;;3.80;75.81
61357;BME280;47227;46.752;23.576;2023-11-19T09:59:52;96406.20;;;3.78;75.62
61357;BME280;47227;46.752;23.576;2023-11-19T10:02:21;96407.19;;;3.81;75.96
61357;BME280;47227;46.752;23.576;2023-11-19T10:04:51;96410.61;;;3.84;76.01
61357;BME280;47227;46.752;23.576;2023-11-19T10:07:21;96408.42;;;3.89;75.89
61357;BME280;47227;46.752;23.576;2023-11-19T10:09:51;96399.64;;;3.89;74.35
61357;BME280;47227;46.752;23.576;2023-11-19T10:12:20;96394.80;;;3.90;74.13
61357;BME280;47227;46.752;23.576;2023-11-19T10:14:49;96388.58;;;3.93;74.42
61357;BME280;47227;46.752;23.576;2023-11-19T10:17:19;96392.64;;;3.99;74.70
61357;BME280;47227;46.752;23.576;2023-11-19T10:19:47;96393.67;;;4.05;73.65
61357;BME280;47227;46.752;23.576;2023-11-19T10:22:16;96395.21;;;4.10;73.37
61357;BME280;47227;46.752;23.576;2023-11-19T10:24:46;96412.86;;;4.15;72.55
61357;BME280;47227;46.752;23.576;2023-11-19T10:27:24;96425.94;;;4.18;72.58
61357;BME280;47227;46.752;23.576;2023-11-19T10:29:53;96435.97;;;4.19;71.49
61357;BME280;47227;46.752;23.576;2023-11-19T10:32:22;96430.86;;;4.17;71.22
61357;BME280;47227;46.752;23.576;2023-11-19T10:35:07;96418.52;;;4.18;71.36
61357;BME280;47227;46.752;23.576;2023-11-19T10:37:35;96399.80;;;4.16;70.95
61357;BME280;47227;46.752;23.576;2023-11-19T10:40:07;96387.98;;;4.18;71.51
61357;BME280;47227;46.752;23.576;2023-11-19T10:42:39;96391.15;;;4.24;71.99
61357;BME280;47227;46.752;23.576;2023-11-19T10:45:29;96389.01;;;4.34;72.10
61357;BME280;47227;46.752;23.576;2023-11-19T10:47:58;96392.02;;;4.52;72.72
61357;BME280;47227;46.752;23.576;2023-11-19T10:50:27;96389.81;;;4.65;72.25
61357;BME280;47227;46.752;23.576;2023-11-19T10:52:57;96379.43;;;4.70;70.33
61357;BME280;47227;46.752;23.576;2023-11-19T10:55:30;96364.91;;;4.73;70.06
61357;BME280;47227;46.752;23.576;2023-11-19T10:58:03;96358.59;;;4.76;70.50
61357;BME280;47227;46.752;23.576;2023-11-19T11:03:11;96360.09;;;4.93;70.48
61357;BME280;47227;46.752;23.576;2023-11-19T11:05:46;96362.68;;;5.01;69.76
61357;BME280;47227;46.752;23.576;2023-11-19T11:08:16;96367.77;;;5.11;69.18
61357;BME280;47227;46.752;23.576;2023-11-19T11:10:52;96367.38;;;5.12;69.72
61357;BME280;47227;46.752;23.576;2023-11-19T11:13:25;96365.77;;;5.25;70.30
61357;BME280;47227;46.752;23.576;2023-11-19T11:15:56;96361.54;;;5.31;69.94
61357;BME280;47227;46.752;23.576;2023-11-19T11:18:28;96358.13;;;5.32;69.68
61357;BME280;47227;46.752;23.576;2023-11-19T11:21:01;96362.41;;;5.25;69.19
61357;BME280;47227;46.752;23.576;2023-11-19T11:23:56;96365.91;;;5.14;69.35
61357;BME280;47227;46.752;23.576;2023-11-19T11:29:20;96378.52;;;5.08;69.92
61357;BME280;47227;46.752;23.576;2023-11-19T11:32:02;96386.77;;;4.92;69.85
61357;BME280;47227;46.752;23.576;2023-11-19T11:34:57;96380.20;;;4.80;69.89
61357;BME280;47227;46.752;23.576;2023-11-19T11:37:44;96378.45;;;4.75;70.20
61357;BME280;47227;46.752;23.576;2023-11-19T11:40:17;96382.73;;;4.65;70.48
61357;BME280;47227;46.752;23.576;2023-11-19T11:42:46;96386.00;;;4.61;70.86
61357;BME280;47227;46.752;23.576;2023-11-19T11:45:15;96389.10;;;4.55;70.68
61357;BME280;47227;46.752;23.576;2023-11-19T11:58:05;96419.59;;;4.25;70.45
61357;BME280;47227;46.752;23.576;2023-11-19T12:00:39;96420.75;;;4.21;70.08
61357;BME280;47227;46.752;23.576;2023-11-19T12:03:08;96419.58;;;4.12;70.16
61357;BME280;47227;46.752;23.576;2023-11-19T12:05:47;96415.71;;;4.05;70.61
61357;BME280;47227;46.752;23.576;2023-11-19T12:08:19;96419.47;;;4.03;70.25
61357;BME280;47227;46.752;23.576;2023-11-19T12:10:55;96418.98;;;4.00;70.39
61357;BME280;47227;46.752;23.576;2023-11-19T12:13:46;96412.74;;;3.92;70.72
61357;BME280;47227;46.752;23.576;2023-11-19T12:16:15;96403.70;;;3.94;71.00
61357;BME280;47227;46.752;23.576;2023-11-19T12:18:44;96399.52;;;3.93;71.30
61357;BME280;47227;46.752;23.576;2023-11-19T12:21:30;96385.59;;;3.92;70.89
61357;BME280;47227;46.752;23.576;2023-11-19T12:23:59;96379.56;;;3.90;70.77
61357;BME280;47227;46.752;23.576;2023-11-19T12:26:37;96377.17;;;3.78;70.06
61357;BME280;47227;46.752;23.576;2023-11-19T12:29:06;96377.30;;;3.65;70.09
61357;BME280;47227;46.752;23.576;2023-11-19T12:31:37;96378.02;;;3.58;70.43
61357;BME280;47227;46.752;23.576;2023-11-19T12:34:06;96379.44;;;3.52;70.66
61357;BME280;47227;46.752;23.576;2023-11-19T12:36:36;96378.59;;;3.48;70.83
61357;BME280;47227;46.752;23.576;2023-11-19T12:39:04;96378.80;;;3.44;71.08
61357;BME280;47227;46.752;23.576;2023-11-19T12:41:48;96362.16;;;3.45;71.44
61357;BME280;47227;46.752;23.576;2023-11-19T12:44:17;96349.55;;;3.43;71.52
61357;BME280;47227;46.752;23.576;2023-11-19T12:46:45;96347.55;;;3.42;71.74
61357;BME280;47227;46.752;23.576;2023-11-19T12:49:15;96338.27;;;3.42;71.84
61357;BME280;47227;46.752;23.576;2023-11-19T12:51:44;96332.52;;;3.43;72.02
61357;BME280;47227;46.752;23.576;2023-11-19T12:54:12;96326.85;;;3.42;71.98
61357;BME280;47227;46.752;23.576;2023-11-19T12:56:52;96326.05;;;3.41;72.07
61357;BME280;47227;46.752;23.576;2023-11-19T12:59:20;96329.45;;;3.40;72.01
61357;BME280;47227;46.752;23.576;2023-11-19T13:04:28;96329.55;;;3.36;72.20
61357;BME280;47227;46.752;23.576;2023-11-19T13:06:59;96325.73;;;3.35;72.37
61357;BME280;47227;46.752;23.576;2023-11-19T13:09:31;96323.23;;;3.34;72.24
61357;BME280;47227;46.752;23.576;2023-11-19T13:12:12;96322.11;;;3.30;72.14
61357;BME280;47227;46.752;23.576;2023-11-19T13:14:42;96329.54;;;3.23;72.29
61357;BME280;47227;46.752;23.576;2023-11-19T13:17:13;96327.49;;;3.16;72.31
61357;BME280;47227;46.752;23.576;2023-11-19T13:19:42;96331.16;;;3.08;72.34
61357;BME280;47227;46.752;23.576;2023-11-19T13:22:11;96332.80;;;3.03;72.58
61357;BME280;47227;46.752;23.576;2023-11-19T13:24:39;96334.66;;;3.01;72.69
61357;BME280;47227;46.752;23.576;2023-11-19T13:27:09;96327.87;;;2.98;72.79
61357;BME280;47227;46.752;23.576;2023-11-19T13:29:37;96320.70;;;2.97;72.66
61357;BME280;47227;46.752;23.576;2023-11-19T13:32:06;96312.33;;;2.95;72.54
61357;BME280;47227;46.752;23.576;2023-11-19T13:34:34;96313.55;;;2.93;72.60